Airfield :
LOGIN :

Register | Disclaimer

   EN    FR    IT 

 










Legend :    VFR   Marginal VFR   IFR   Intensive IFR   Very Intensive IFR
Visi :
Ceiling :
>= 8 km
>= 3000ft
5 to 8 km
1000 to 3000 ft
1500m to 5 km
500 to 1000 ft
800 to 1500m
200 to 500 ft
< 800m
< 200 ft
Symbols :   Thunderstorms  Fog  Heavy snow  Heavy precipitations  Wind > 20 kt
SIGMETs :     Misc.  Thunderstorms  Icing  Turbulence  Mountain Waves  Volcanic Ashes







- Airport Elevation : 236 ft
- IATA code : MMX


ESMS - Malmö Sturup

CURRENT METAR :
  • 122350Z 02004KT 9999 OVC009 M00/M02 Q1029 R17/09//95

EXPIRED METARs :
  • 122320Z 01006KT 9999 OVC010 M01/M03 Q1029 R17/09//95
  • 122250Z 01006KT 9999 OVC012 M02/M03 Q1029 R17/09//95
  • 122220Z 01006KT 9999 SCT022 BKN037 M02/M03 Q1029 R17/09//95
  • 122150Z 01007KT CAVOK M03/M04 Q1029 R17/09//95
  • 122120Z 03007KT CAVOK M02/M03 Q1029 R17/09//95

TAF AMD TAF ESMS
Valid from the 13 at 00:00 until the 14 at 00:00 UTC


130001Z 1300/1324 04010KT 9999 SCT020
TEMPO 1300/1304 BKN008
TEMPO 1304/1320 4000 -SHSNRA BKN010TCU
No reported NOTAMs for that airfield.



MET'MAP, your aeronautical weather chart ! - Copyright ORBIFLY December 2007 - Disclaimer

ORBIFLY MET'MAP TEAM :

Programming & Development : Alexandra Zaïnal
Concept & Development : Baudouin d'Aumeries
Co-Development & Prog : Marc-Olivier Méhu
Technical & hardware support : Manuel Goepfert

Contact : metmap@orbifly.com




SOURCES & CREDITS :

   NOAA